Time;durP1;ratioP1;P1;durP2;ratioP2;P2;SDS_P1;SDS_P2;PMS_P1;PMS_P2;Temp;Humidity;BMP_temperature;BMP_pressure;BME280_temperature;BME280_humidity;BME280_pressure;Samples;Min_cycle;Max_cycle;Signal;HPM_P1;HPM_P2
2023/05/06 00:00:39;;;;;;;1.65;1.10;;;;;;;18.00;64.34;100156.47;10067178;29;20052;-70
2023/05/06 00:05:42;;;;;;;1.90;0.93;;;;;;;17.97;63.23;100143.38;10067322;29;20886;-69
2023/05/06 00:10:44;;;;;;;1.95;1.67;;;;;;;17.96;64.61;100147.06;10073049;29;20131;-69
2023/05/06 00:15:45;;;;;;;1.98;1.17;;;;;;;17.88;63.44;100133.63;10064405;29;20057;-75
2023/05/06 00:20:47;;;;;;;1.92;1.33;;;;;;;17.86;66.27;100143.69;10072934;29;20069;-72
2023/05/06 00:25:48;;;;;;;2.78;1.73;;;;;;;17.84;65.99;100143.03;10066120;29;20049;-72
2023/05/06 00:30:50;;;;;;;2.40;1.48;;;;;;;17.80;66.22;100141.72;10070921;29;20081;-71
2023/05/06 00:35:51;;;;;;;4.35;1.90;;;;;;;17.73;67.67;100140.72;10066802;29;20071;-74
2023/05/06 00:40:53;;;;;;;1.70;1.42;;;;;;;17.74;68.68;100137.84;10067849;29;20055;-72
2023/05/06 00:45:54;;;;;;;3.33;1.75;;;;;;;17.60;67.66;100136.72;10067493;29;20048;-73
2023/05/06 00:50:56;;;;;;;1.75;1.40;;;;;;;17.59;68.03;100142.28;10064970;29;20063;-73
2023/05/06 00:55:57;;;;;;;2.30;1.42;;;;;;;17.49;67.85;100131.72;10105196;29;20126;-73
2023/05/06 01:00:58;;;;;;;3.03;1.85;;;;;;;17.49;68.24;100142.47;10105527;29;20051;-72
2023/05/06 01:06:17;;;;;;;1.80;1.30;;;;;;;17.41;70.15;100145.16;10101609;29;20076;-75
2023/05/06 01:11:28;;;;;;;1.60;1.45;;;;;;;17.32;69.08;100138.97;10092551;29;20068;-73
2023/05/06 01:16:31;;;;;;;1.95;1.50;;;;;;;17.28;70.51;100127.72;10102229;29;20223;-72
2023/05/06 01:21:34;;;;;;;2.28;1.60;;;;;;;17.25;68.24;100133.44;10090818;29;20053;-70
2023/05/06 01:26:35;;;;;;;1.90;1.70;;;;;;;17.16;68.68;100134.47;10102974;29;20056;-73
2023/05/06 01:31:49;;;;;;;2.20;2.00;;;;;;;17.09;69.40;100138.81;10101749;29;20160;-72
2023/05/06 01:36:57;;;;;;;;;;;;;;;17.07;69.00;100149.75;10103339;29;20045;-73
2023/05/06 01:42:01;;;;;;;2.45;1.85;;;;;;;16.92;69.50;100138.81;10103557;29;19958;-72
2023/05/06 01:47:04;;;;;;;2.67;1.50;;;;;;;16.94;69.76;100150.25;10094393;29;20145;-74
2023/05/06 01:52:06;;;;;;;2.38;1.95;;;;;;;16.90;69.66;100148.91;10101394;29;20552;-71
2023/05/06 01:57:07;;;;;;;2.75;1.42;;;;;;;16.82;69.80;100138.09;10127685;29;20268;-70
2023/05/06 02:02:08;;;;;;;1.77;1.20;;;;;;;16.80;70.03;100148.19;10152134;29;20056;-71
2023/05/06 02:07:10;;;;;;;3.47;1.77;;;;;;;16.71;70.11;100147.34;10112243;29;20045;-73
2023/05/06 02:12:13;;;;;;;2.40;1.55;;;;;;;16.61;70.26;100163.59;10110665;29;20048;-73
2023/05/06 02:17:15;;;;;;;2.08;1.70;;;;;;;16.50;72.34;100172.00;10106608;29;20169;-72
2023/05/06 02:22:16;;;;;;;2.45;2.00;;;;;;;16.39;72.70;100169.59;10104679;29;20052;-73
2023/05/06 02:27:17;;;;;;;2.63;1.35;;;;;;;16.34;73.01;100171.94;10103644;29;20075;-71
2023/05/06 02:32:19;;;;;;;1.60;1.50;;;;;;;16.28;70.10;100175.28;10103755;29;20075;-73
2023/05/06 02:37:20;;;;;;;1.60;1.30;;;;;;;16.14;70.07;100174.03;10109018;29;20048;-73
2023/05/06 02:42:21;;;;;;;2.42;1.33;;;;;;;16.09;70.75;100174.53;10096144;29;20060;-71
2023/05/06 02:47:23;;;;;;;2.05;1.52;;;;;;;16.02;70.59;100184.25;10107303;29;20196;-77
2023/05/06 02:52:24;;;;;;;3.35;1.65;;;;;;;15.97;72.16;100175.81;10111769;29;20539;-75
2023/05/06 02:57:26;;;;;;;1.75;1.38;;;;;;;15.92;70.72;100167.41;10119477;29;20806;-71
2023/05/06 03:02:27;;;;;;;2.08;1.30;;;;;;;15.78;72.50;100172.38;10118789;29;20044;-71
2023/05/06 03:07:29;;;;;;;1.80;1.30;;;;;;;15.79;74.09;100174.03;10092089;29;20085;-72
2023/05/06 03:12:30;;;;;;;2.75;1.88;;;;;;;15.61;73.10;100159.84;10077847;29;20722;-75
2023/05/06 03:17:32;;;;;;;2.92;1.70;;;;;;;15.72;73.63;100189.91;10079117;29;20060;-73
2023/05/06 03:22:33;;;;;;;3.00;1.95;;;;;;;15.72;75.13;100181.03;10076174;29;20140;-71
2023/05/06 03:27:35;;;;;;;2.92;1.60;;;;;;;15.71;74.86;100190.06;10074115;29;20057;-74
2023/05/06 03:32:37;;;;;;;2.08;1.35;;;;;;;15.67;74.90;100186.03;10068385;29;20704;-72
2023/05/06 03:37:38;;;;;;;3.67;1.60;;;;;;;15.65;74.18;100193.41;10069453;29;20072;-72
2023/05/06 03:42:40;;;;;;;2.88;1.80;;;;;;;15.60;73.32;100176.91;10070334;29;20061;-72
2023/05/06 03:47:42;;;;;;;2.55;1.58;;;;;;;15.64;75.04;100199.75;10072698;29;20055;-74
2023/05/06 03:52:44;;;;;;;2.03;1.40;;;;;;;15.58;74.43;100189.66;10092775;29;20770;-73
2023/05/06 03:57:45;;;;;;;2.65;1.48;;;;;;;15.58;73.31;100193.16;10106632;29;20060;-70
2023/05/06 04:02:47;;;;;;;2.83;1.65;;;;;;;15.47;75.00;100186.22;10083526;29;20053;-72
2023/05/06 04:07:49;;;;;;;2.17;1.40;;;;;;;15.43;74.03;100184.03;10088225;29;20171;-71
2023/05/06 04:12:51;;;;;;;3.55;1.65;;;;;;;15.35;73.19;100182.13;10077503;29;20052;-73
2023/05/06 04:17:52;;;;;;;2.33;1.73;;;;;;;15.27;73.44;100184.75;10074830;29;20053;-70
2023/05/06 04:22:53;;;;;;;4.90;1.77;;;;;;;15.24;73.21;100185.91;10066181;29;20509;-72
2023/05/06 04:27:55;;;;;;;3.72;2.38;;;;;;;15.24;74.79;100185.91;10074851;29;20061;-71
2023/05/06 04:32:56;;;;;;;2.47;1.95;;;;;;;15.24;76.57;100196.63;10099341;29;20509;-74
2023/05/06 04:37:58;;;;;;;4.00;2.47;;;;;;;15.29;75.37;100204.22;10111098;29;20100;-74
2023/05/06 04:42:59;;;;;;;3.03;2.03;;;;;;;15.29;74.46;100206.88;10117874;29;20134;-72
2023/05/06 04:48:03;;;;;;;3.42;2.55;;;;;;;15.27;76.54;100208.91;10082794;29;20045;-75
2023/05/06 04:53:04;;;;;;;4.13;2.30;;;;;;;15.31;75.92;100208.44;10071124;29;20060;-76
2023/05/06 04:58:06;;;;;;;2.97;2.40;;;;;;;15.33;76.63;100219.00;10067309;29;20132;-73
2023/05/06 05:03:07;;;;;;;3.10;2.80;;;;;;;15.43;74.84;100217.03;10070214;29;20121;-70
2023/05/06 05:08:12;;;;;;;3.05;2.75;;;;;;;15.42;75.91;100211.84;10065809;29;20064;-73
2023/05/06 05:13:13;;;;;;;6.18;3.08;;;;;;;15.48;74.05;100209.38;10075373;29;20052;-70
2023/05/06 05:18:14;;;;;;;4.30;3.15;;;;;;;15.62;74.86;100226.75;10079324;29;20119;-73
2023/05/06 05:23:16;;;;;;;3.95;2.88;;;;;;;15.69;74.86;100226.97;10062553;29;20056;-73
2023/05/06 05:28:17;;;;;;;4.93;3.05;;;;;;;15.64;72.19;100223.91;10066483;29;20521;-73
2023/05/06 05:33:19;;;;;;;6.25;3.85;;;;;;;15.69;74.40;100232.34;10063740;29;20058;-72
2023/05/06 05:38:20;;;;;;;5.93;3.42;;;;;;;15.84;74.29;100232.63;10061663;29;20056;-72
2023/05/06 05:43:24;;;;;;;4.13;2.92;;;;;;;15.95;72.89;100242.25;10062444;29;20044;-75
2023/05/06 05:48:26;;;;;;;4.50;3.63;;;;;;;16.01;70.98;100257.72;10059322;29;20655;-74
2023/05/06 05:53:27;;;;;;;4.50;2.90;;;;;;;16.11;73.63;100255.78;10063219;29;20701;-75
2023/05/06 05:58:28;;;;;;;4.35;2.83;;;;;;;16.15;70.15;100254.44;10067020;29;20057;-75
2023/05/06 06:03:30;;;;;;;4.18;2.95;;;;;;;16.07;70.87;100247.19;10063120;29;20048;-75
2023/05/06 06:08:32;;;;;;;3.75;2.88;;;;;;;16.32;69.55;100251.84;10068830;29;20083;-75
2023/05/06 06:13:33;;;;;;;6.68;3.25;;;;;;;16.43;69.64;100252.38;10072289;29;20711;-74
2023/05/06 06:18:35;;;;;;;3.40;2.38;;;;;;;16.54;68.61;100253.97;10070923;29;20063;-75
2023/05/06 06:23:36;;;;;;;4.05;2.80;;;;;;;16.69;69.02;100264.06;10072023;29;20056;-72
2023/05/06 06:28:38;;;;;;;2.97;2.63;;;;;;;16.83;69.78;100262.59;10075055;29;20383;-72
2023/05/06 06:33:39;;;;;;;5.22;2.53;;;;;;;17.06;67.58;100273.63;10087183;29;20381;-77
2023/05/06 06:38:41;;;;;;;4.97;2.72;;;;;;;17.22;67.31;100268.25;10114991;29;20096;-69
2023/05/06 06:43:42;;;;;;;2.85;2.60;;;;;;;17.38;65.22;100271.97;10083993;29;20064;-70
2023/05/06 06:48:43;;;;;;;5.05;3.08;;;;;;;17.30;64.47;100265.56;10084023;29;20057;-74
2023/05/06 06:53:47;;;;;;;3.50;3.20;;;;;;;17.40;66.35;100269.94;10080798;29;20428;-73
2023/05/06 06:58:48;;;;;;;4.65;3.08;;;;;;;17.71;65.24;100262.03;10076728;29;20616;-70
2023/05/06 07:03:52;;;;;;;4.53;2.65;;;;;;;17.77;62.83;100260.50;10115406;29;20143;-74
2023/05/06 07:08:54;;;;;;;3.78;2.70;;;;;;;17.87;63.68;100257.66;10102155;29;20444;-70
2023/05/06 07:13:55;;;;;;;2.88;2.58;;;;;;;17.98;62.13;100262.69;10122430;29;20180;-72
2023/05/06 07:18:56;;;;;;;3.13;2.70;;;;;;;17.95;61.75;100265.72;10121642;29;20063;-73
2023/05/06 07:23:59;;;;;;;3.15;2.75;;;;;;;18.31;60.78;100262.59;10104303;29;20139;-72
2023/05/06 07:29:00;;;;;;;2.88;2.42;;;;;;;18.53;61.37;100264.53;10101283;29;20064;-75
2023/05/06 07:34:02;;;;;;;3.28;2.40;;;;;;;18.76;58.89;100268.31;10112517;29;20060;-75
2023/05/06 07:39:03;;;;;;;2.67;2.10;;;;;;;18.82;57.39;100270.28;10092847;29;20063;-75
2023/05/06 07:44:05;;;;;;;5.22;1.73;;;;;;;19.02;57.83;100282.34;10096458;29;20064;-71
2023/05/06 07:49:06;;;;;;;3.65;2.35;;;;;;;19.17;56.19;100279.72;10096991;29;20060;-74
2023/05/06 07:54:08;;;;;;;2.88;1.90;;;;;;;19.31;55.28;100278.09;10097302;29;20411;-76
2023/05/06 07:59:09;;;;;;;3.60;1.85;;;;;;;19.48;54.75;100275.28;10111698;29;20051;-77
2023/05/06 08:04:10;;;;;;;1.90;1.52;;;;;;;19.60;54.84;100290.84;10148010;29;20162;-77
2023/05/06 08:09:12;;;;;;;2.70;1.80;;;;;;;19.87;54.23;100285.09;10118311;29;20078;-75
2023/05/06 08:14:24;;;;;;;2.42;1.02;;;;;;;20.11;52.32;100276.72;10094378;29;20052;-71
2023/05/06 08:19:26;;;;;;;1.40;1.08;;;;;;;20.30;51.49;100290.72;10094597;29;20055;-73
2023/05/06 08:24:27;;;;;;;3.22;1.30;;;;;;;20.49;50.68;100290.16;10100548;29;20048;-76
2023/05/06 08:29:29;;;;;;;2.00;1.33;;;;;;;20.63;50.73;100290.34;10109437;29;20052;-78
2023/05/06 08:34:30;;;;;;;1.73;1.42;;;;;;;20.23;49.63;100289.78;10105633;29;20793;-76
2023/05/06 08:39:32;;;;;;;2.10;1.50;;;;;;;20.01;51.20;100292.38;10083559;29;20052;-75
2023/05/06 08:44:33;;;;;;;2.13;1.23;;;;;;;19.88;50.90;100286.78;10085283;29;20056;-72
2023/05/06 08:49:35;;;;;;;2.42;1.20;;;;;;;19.97;51.17;100280.25;10082164;29;20203;-75
2023/05/06 08:54:37;;;;;;;2.15;0.75;;;;;;;20.00;49.00;100293.41;10084082;29;20053;-74
2023/05/06 08:59:40;;;;;;;1.65;0.70;;;;;;;20.10;50.38;100288.56;10095927;29;20188;-72
2023/05/06 09:04:43;;;;;;;1.27;0.57;;;;;;;20.19;50.38;100283.06;10083990;29;20503;-72
2023/05/06 09:09:44;;;;;;;0.70;0.60;;;;;;;20.38;50.43;100281.69;10097470;29;20237;-75
2023/05/06 09:14:48;;;;;;;2.78;0.88;;;;;;;20.43;48.75;100285.50;10096550;29;20068;-74
2023/05/06 09:19:52;;;;;;;1.08;0.57;;;;;;;20.61;49.62;100277.00;10093985;29;20111;-75
2023/05/06 09:24:56;;;;;;;1.75;0.60;;;;;;;20.79;48.44;100281.19;10102185;29;20056;-74
2023/05/06 09:30:02;;;;;;;2.17;0.55;;;;;;;21.37;47.23;100281.19;10084017;29;20060;-74
2023/05/06 09:35:04;;;;;;;1.60;0.63;;;;;;;21.75;46.65;100277.38;10097971;29;20065;-77
2023/05/06 09:40:07;;;;;;;1.67;0.60;;;;;;;21.77;45.91;100276.16;10125161;29;20155;-74
2023/05/06 09:45:09;;;;;;;;;;;;;;;21.86;45.93;100274.13;10090479;29;20048;-74
2023/05/06 09:50:12;;;;;;;4.55;0.90;;;;;;;22.04;44.38;100260.91;10092208;29;20041;-76
2023/05/06 09:55:14;;;;;;;5.43;2.07;;;;;;;22.47;45.16;100249.06;10090156;29;20052;-73
2023/05/06 10:00:16;;;;;;;4.63;1.05;;;;;;;22.84;45.69;100251.50;10105266;29;20060;-77
2023/05/06 10:05:17;;;;;;;1.65;0.60;;;;;;;23.08;43.63;100247.38;10106958;29;20067;-76
2023/05/06 10:10:20;;;;;;;2.47;0.60;;;;;;;22.92;43.51;100246.75;10100152;29;20064;-73
2023/05/06 10:15:25;;;;;;;3.30;0.80;;;;;;;22.88;42.07;100250.03;10090052;29;20064;-74
2023/05/06 10:20:30;;;;;;;1.30;0.40;;;;;;;23.15;42.95;100244.72;10101912;29;20056;-74
2023/05/06 10:25:37;;;;;;;1.15;0.70;;;;;;;23.63;41.15;100242.66;10089215;29;20116;-76
2023/05/06 10:30:39;;;;;;;1.48;0.35;;;;;;;23.79;41.50;100232.41;10099306;29;20753;-78
2023/05/06 10:35:41;;;;;;;2.57;0.60;;;;;;;24.18;40.48;100225.22;10097216;29;20056;-76
2023/05/06 10:40:43;;;;;;;1.60;0.40;;;;;;;24.19;41.89;100221.47;10094386;29;20048;-74
2023/05/06 10:46:04;;;;;;;0.50;0.40;;;;;;;24.52;38.97;100223.22;10096552;29;20092;-74
2023/05/06 10:51:14;;;;;;;1.88;0.47;;;;;;;24.33;40.77;100214.91;10091666;29;20251;-76
2023/05/06 10:56:16;;;;;;;1.02;0.40;;;;;;;24.13;39.72;100204.13;10092842;29;20053;-78
2023/05/06 11:01:22;;;;;;;1.55;0.40;;;;;;;23.84;42.00;100202.72;10094375;29;20053;-77
2023/05/06 11:06:32;;;;;;;1.60;0.50;;;;;;;23.79;43.03;100205.22;10093451;29;20834;-74
2023/05/06 11:11:52;;;;;;;1.30;0.57;;;;;;;23.59;41.20;100180.81;10089167;29;20411;-74
2023/05/06 11:16:56;;;;;;;0.88;0.70;;;;;;;23.49;40.67;100194.78;10083891;29;20314;-77
2023/05/06 11:21:59;;;;;;;1.02;0.50;;;;;;;23.22;41.12;100186.66;10085581;29;20349;-73
2023/05/06 11:27:01;;;;;;;1.05;0.45;;;;;;;23.14;42.09;100197.72;10092216;29;20052;-78
2023/05/06 11:32:04;;;;;;;1.60;0.47;;;;;;;22.95;41.33;100202.91;10092449;29;20085;-72
2023/05/06 11:37:06;;;;;;;;;;;;;;;22.80;41.52;100187.84;10086229;29;20084;-71
2023/05/06 11:42:08;;;;;;;0.40;0.30;;;;;;;22.68;41.48;100190.31;10102224;29;20050;-77
2023/05/06 11:47:09;;;;;;;1.55;0.38;;;;;;;22.59;42.70;100173.38;10096887;29;20162;-74
2023/05/06 11:52:11;;;;;;;2.08;0.60;;;;;;;22.70;42.84;100188.22;10088486;29;20917;-77
2023/05/06 11:57:13;;;;;;;1.50;0.52;;;;;;;22.67;42.62;100188.63;10097696;29;20108;-75
2023/05/06 12:02:17;;;;;;;1.88;0.47;;;;;;;22.48;42.51;100172.09;10084535;29;20143;-77
2023/05/06 12:07:18;;;;;;;2.05;0.70;;;;;;;22.24;43.45;100171.56;10080246;29;20100;-75
2023/05/06 12:12:23;;;;;;;1.38;0.50;;;;;;;22.41;42.94;100187.50;10076716;29;20472;-78
2023/05/06 12:17:25;;;;;;;4.65;0.60;;;;;;;22.38;43.46;100187.91;10102888;29;20064;-76
2023/05/06 12:22:26;;;;;;;2.45;0.52;;;;;;;22.22;43.64;100175.53;10119469;29;20056;-74
2023/05/06 12:27:32;;;;;;;0.82;0.55;;;;;;;22.24;43.26;100179.69;10089479;29;20583;-71
2023/05/06 12:32:33;;;;;;;1.10;0.38;;;;;;;22.28;43.55;100180.13;10087265;29;22392;-72
2023/05/06 12:37:35;;;;;;;0.98;0.50;;;;;;;22.33;43.30;100176.84;10072561;29;20057;-74
2023/05/06 12:42:36;;;;;;;1.08;0.55;;;;;;;22.37;43.68;100178.94;10066405;29;20053;-74
2023/05/06 12:47:37;;;;;;;2.55;0.80;;;;;;;22.48;42.28;100177.53;10069288;29;20049;-74
2023/05/06 12:52:42;;;;;;;1.88;0.50;;;;;;;22.52;42.29;100178.78;10070312;29;20057;-73
2023/05/06 12:57:44;;;;;;;1.13;0.50;;;;;;;22.62;42.70;100172.13;10068795;29;20061;-77
2023/05/06 13:02:46;;;;;;;0.70;0.40;;;;;;;22.80;41.99;100171.56;10067729;29;20111;-73
2023/05/06 13:07:50;;;;;;;0.95;0.32;;;;;;;23.08;42.34;100163.25;10068292;29;20505;-74
2023/05/06 13:12:51;;;;;;;1.85;0.40;;;;;;;23.18;41.22;100152.84;10066657;29;20060;-76
2023/05/06 13:17:52;;;;;;;1.33;0.60;;;;;;;23.18;40.12;100147.41;10067221;29;20064;-71
2023/05/06 13:22:54;;;;;;;1.45;0.40;;;;;;;23.27;40.65;100151.56;10064189;29;20115;-76
2023/05/06 13:27:55;;;;;;;0.77;0.30;;;;;;;23.37;40.55;100155.75;10068787;29;20061;-72
2023/05/06 13:32:57;;;;;;;1.83;0.35;;;;;;;23.46;40.19;100149.03;10072787;29;20508;-76
2023/05/06 13:37:58;;;;;;;1.05;0.40;;;;;;;23.34;39.42;100143.41;10073120;29;20082;-73
2023/05/06 13:42:59;;;;;;;1.85;0.60;;;;;;;23.27;40.51;100140.72;10065180;29;20057;-75
2023/05/06 13:48:01;;;;;;;2.38;0.50;;;;;;;23.12;40.51;100137.38;10065676;29;20127;-76
2023/05/06 13:53:03;;;;;;;1.90;0.60;;;;;;;22.97;39.81;100132.13;10075983;29;20071;-74
2023/05/06 13:58:05;;;;;;;0.70;0.45;;;;;;;22.86;40.62;100130.84;10068015;29;20091;-76
2023/05/06 14:03:07;;;;;;;1.05;0.20;;;;;;;22.86;40.67;100116.44;10066950;29;20105;-76
2023/05/06 14:08:08;;;;;;;1.50;0.40;;;;;;;22.77;40.09;100107.69;10069257;29;20068;-74
2023/05/06 14:13:10;;;;;;;2.17;0.30;;;;;;;22.82;41.01;100105.19;10066976;29;20067;-77
2023/05/06 14:18:11;;;;;;;1.13;0.30;;;;;;;22.71;40.20;100108.50;10065631;29;20167;-74
2023/05/06 14:23:13;;;;;;;4.88;0.95;;;;;;;22.68;40.38;100096.19;10064217;29;20056;-77
2023/05/06 14:28:14;;;;;;;2.15;0.40;;;;;;;22.70;41.20;100095.97;10061618;29;20571;-73
2023/05/06 14:33:16;;;;;;;2.35;0.50;;;;;;;22.68;40.89;100100.78;10064124;29;20480;-75
2023/05/06 14:38:18;;;;;;;0.98;0.30;;;;;;;22.62;40.56;100088.88;10070480;29;20570;-75
2023/05/06 14:43:19;;;;;;;1.60;0.85;;;;;;;22.52;40.64;100088.44;10067744;29;20090;-74
2023/05/06 14:48:21;;;;;;;0.88;0.40;;;;;;;22.54;41.10;100089.91;10070510;29;20068;-72
2023/05/06 14:53:22;;;;;;;1.60;0.60;;;;;;;22.53;40.75;100085.56;10068557;29;20056;-75
2023/05/06 14:58:24;;;;;;;0.88;0.40;;;;;;;22.41;40.54;100081.75;10071085;29;20128;-72
2023/05/06 15:03:25;;;;;;;0.40;0.30;;;;;;;22.36;40.65;100084.25;10065925;29;20064;-74
2023/05/06 15:08:27;;;;;;;1.02;0.50;;;;;;;22.24;41.31;100092.94;10066275;29;20158;-74
2023/05/06 15:13:29;;;;;;;0.93;0.52;;;;;;;22.24;41.31;100086.69;10067515;29;20508;-71
2023/05/06 15:18:30;;;;;;;3.70;0.85;;;;;;;22.14;40.99;100092.47;10068981;29;20056;-70
2023/05/06 15:23:31;;;;;;;0.73;0.40;;;;;;;21.93;42.54;100095.31;10071032;29;20056;-69
2023/05/06 15:28:33;;;;;;;1.80;0.60;;;;;;;21.78;43.04;100088.16;10097216;29;20056;-72
2023/05/06 15:33:34;;;;;;;2.80;0.70;;;;;;;21.79;43.26;100095.25;10130496;29;21130;-69
2023/05/06 15:39:02;;;;;;;1.30;0.60;;;;;;;21.78;43.17;100109.84;10082157;29;20052;-69
2023/05/06 15:44:04;;;;;;;2.30;1.13;;;;;;;21.73;43.75;100098.78;10059404;29;20136;-72
2023/05/06 15:49:06;;;;;;;1.87;0.60;;;;;;;21.74;44.50;100100.47;10081889;29;20599;-70
2023/05/06 15:54:11;;;;;;;0.60;0.30;;;;;;;21.80;44.06;100101.50;10067104;29;20485;-70
2023/05/06 15:59:12;;;;;;;1.02;0.68;;;;;;;21.68;43.79;100101.28;10071062;29;23931;-75
2023/05/06 16:04:13;;;;;;;1.67;0.50;;;;;;;21.59;44.13;100094.31;10072509;29;20056;-75
2023/05/06 16:09:15;;;;;;;1.95;0.77;;;;;;;21.60;44.09;100090.59;10066416;29;20143;-76
2023/05/06 16:14:16;;;;;;;1.08;0.30;;;;;;;21.63;43.88;100099.16;10068902;29;20071;-71
2023/05/06 16:19:18;;;;;;;1.98;1.05;;;;;;;21.65;44.18;100094.38;10069784;29;20064;-76
2023/05/06 16:24:19;;;;;;;1.95;1.33;;;;;;;21.64;44.62;100092.69;10075762;29;20045;-74
2023/05/06 16:29:21;;;;;;;1.00;0.50;;;;;;;21.56;44.26;100089.31;10064673;29;20063;-73
2023/05/06 16:34:23;;;;;;;2.33;0.70;;;;;;;21.51;44.59;100077.22;10068592;29;20060;-77
2023/05/06 16:39:24;;;;;;;3.20;0.95;;;;;;;21.52;44.80;100089.69;10068156;29;20053;-74
2023/05/06 16:44:27;;;;;;;1.02;0.68;;;;;;;21.50;45.59;100080.94;10065773;29;20056;-73
2023/05/06 16:49:29;;;;;;;2.20;0.80;;;;;;;21.50;45.63;100072.00;10060265;29;20057;-71
2023/05/06 16:54:30;;;;;;;1.38;0.70;;;;;;;21.37;45.99;100067.31;10070793;29;20048;-72
2023/05/06 16:59:32;;;;;;;1.92;1.10;;;;;;;21.35;46.23;100063.97;10066428;29;20052;-77
2023/05/06 17:04:33;;;;;;;1.23;0.80;;;;;;;21.34;45.90;100065.81;10068932;29;20199;-77
2023/05/06 17:09:34;;;;;;;1.42;0.77;;;;;;;21.35;46.95;100066.69;10067609;29;20048;-74
2023/05/06 17:14:36;;;;;;;1.15;0.75;;;;;;;21.16;46.55;100066.31;10064766;29;20053;-75
2023/05/06 17:19:37;;;;;;;1.58;0.90;;;;;;;21.16;46.85;100066.31;10062054;29;20103;-76
2023/05/06 17:24:38;;;;;;;2.20;0.93;;;;;;;21.19;47.38;100049.69;10062227;29;20056;-72
2023/05/06 17:29:41;;;;;;;1.58;0.88;;;;;;;21.35;47.20;100056.66;10063506;29;20539;-74
2023/05/06 17:34:42;;;;;;;1.58;0.90;;;;;;;21.40;47.11;100057.97;10073128;29;20138;-73
2023/05/06 17:39:45;;;;;;;2.63;1.20;;;;;;;21.31;47.39;100049.97;10066751;29;20515;-74
2023/05/06 17:44:46;;;;;;;1.30;1.20;;;;;;;21.11;47.08;100055.28;10063989;29;20049;-72
2023/05/06 17:49:51;;;;;;;3.10;1.00;;;;;;;20.98;47.62;100052.47;10066432;29;20044;-74
2023/05/06 17:54:53;;;;;;;3.22;1.25;;;;;;;20.95;48.21;100055.56;10063322;29;20276;-75
2023/05/06 18:00:12;;;;;;;3.45;1.95;;;;;;;20.93;48.55;100057.66;10088482;29;22275;-71
2023/05/06 18:05:15;;;;;;;2.80;1.50;;;;;;;20.86;49.03;100062.16;10088084;29;20056;-74
2023/05/06 18:10:17;;;;;;;1.70;1.50;;;;;;;20.81;49.45;100070.84;10103457;29;20164;-71
2023/05/06 18:15:19;;;;;;;3.80;1.87;;;;;;;20.79;49.59;100072.91;10107082;29;20742;-72
2023/05/06 18:20:20;;;;;;;2.40;1.45;;;;;;;20.63;49.60;100074.81;10073746;29;20057;-74
2023/05/06 18:25:22;;;;;;;2.53;1.70;;;;;;;20.61;50.06;100078.75;10072757;29;20058;-74
2023/05/06 18:30:23;;;;;;;3.58;1.50;;;;;;;20.61;49.82;100086.84;10068513;29;20080;-75
2023/05/06 18:35:25;;;;;;;3.25;2.00;;;;;;;20.58;49.56;100080.00;10080519;29;20057;-78
2023/05/06 18:40:26;;;;;;;3.10;1.77;;;;;;;20.70;50.21;100080.31;10129847;29;20050;-76
2023/05/06 18:45:28;;;;;;;2.97;1.85;;;;;;;20.78;49.90;100074.78;10122775;29;20059;-74
2023/05/06 18:50:29;;;;;;;2.30;1.63;;;;;;;20.87;50.46;100082.75;10116603;29;20135;-75
2023/05/06 18:55:31;;;;;;;2.72;1.88;;;;;;;20.86;50.33;100078.38;10111675;29;20155;-76
2023/05/06 19:00:33;;;;;;;2.95;2.10;;;;;;;20.78;50.47;100069.38;10098613;29;20571;-76
2023/05/06 19:05:36;;;;;;;4.35;2.53;;;;;;;20.86;50.48;100089.22;10098351;29;20419;-73
2023/05/06 19:10:38;;;;;;;2.60;2.40;;;;;;;20.88;50.29;100098.78;10104483;29;20052;-75
2023/05/06 19:15:41;;;;;;;4.20;2.50;;;;;;;20.89;50.78;100105.88;10101257;29;20647;-72
2023/05/06 19:20:42;;;;;;;4.97;2.70;;;;;;;20.86;50.99;100105.44;10091161;29;21099;-72
2023/05/06 19:25:44;;;;;;;5.05;2.30;;;;;;;20.82;51.39;100110.38;10086616;29;20052;-72
2023/05/06 19:30:46;;;;;;;2.55;1.85;;;;;;;20.62;51.78;100111.00;10099609;29;20056;-73
2023/05/06 19:35:48;;;;;;;3.42;1.65;;;;;;;20.55;51.80;100110.13;10081562;29;20151;-73
2023/05/06 19:40:50;;;;;;;1.20;1.00;;;;;;;20.49;52.04;100113.56;10064586;29;20063;-74
2023/05/06 19:45:51;;;;;;;2.05;0.90;;;;;;;20.39;53.99;100116.59;10099812;29;20111;-73
2023/05/06 19:50:52;;;;;;;1.08;0.50;;;;;;;20.34;53.32;100118.19;10081160;29;20060;-74
2023/05/06 19:55:54;;;;;;;1.65;0.90;;;;;;;20.32;53.63;100123.78;10082642;29;20052;-72
2023/05/06 20:00:56;;;;;;;1.08;0.68;;;;;;;20.25;54.17;100122.88;10100614;29;20075;-72
2023/05/06 20:05:57;;;;;;;1.88;1.08;;;;;;;20.17;53.97;100128.41;10081824;29;20606;-73
2023/05/06 20:10:59;;;;;;;1.33;1.08;;;;;;;20.15;53.80;100139.41;10087366;29;20428;-74
2023/05/06 20:16:00;;;;;;;1.77;1.40;;;;;;;20.03;54.07;100128.22;10101223;29;20063;-73
2023/05/06 20:21:02;;;;;;;1.67;1.20;;;;;;;19.99;54.18;100132.31;10097424;29;20104;-77
2023/05/06 20:26:04;;;;;;;2.22;0.70;;;;;;;19.87;54.13;100128.44;10099563;29;20067;-71
2023/05/06 20:31:05;;;;;;;1.85;0.80;;;;;;;19.87;54.32;100128.44;10096155;29;20861;-73
2023/05/06 20:36:07;;;;;;;2.22;1.45;;;;;;;19.65;55.57;100133.72;10093269;29;20067;-75
2023/05/06 20:41:08;;;;;;;1.00;0.70;;;;;;;19.69;54.91;100132.31;10085907;29;20083;-75
2023/05/06 20:46:10;;;;;;;1.85;0.80;;;;;;;19.69;54.61;100135.00;10077388;29;20068;-72
2023/05/06 20:51:11;;;;;;;1.52;0.80;;;;;;;19.68;55.02;100130.66;10079924;29;20111;-74
2023/05/06 20:56:19;;;;;;;2.22;0.82;;;;;;;19.55;55.12;100135.84;10092546;29;20066;-76
2023/05/06 21:01:22;;;;;;;2.45;0.88;;;;;;;19.55;55.78;100133.16;10095400;29;20630;-73
2023/05/06 21:06:24;;;;;;;2.42;0.80;;;;;;;19.53;55.37;100132.47;10095410;29;20055;-74
2023/05/06 21:11:25;;;;;;;1.90;0.70;;;;;;;19.48;55.98;100132.22;10082977;29;20050;-70
2023/05/06 21:16:29;;;;;;;1.55;0.73;;;;;;;19.42;58.51;100131.91;10096757;29;20051;-73
2023/05/06 21:21:31;;;;;;;1.55;0.70;;;;;;;19.42;56.67;100137.31;10095366;29;20164;-76
2023/05/06 21:26:32;;;;;;;1.30;0.98;;;;;;;19.41;56.72;100141.06;10082096;29;20876;-73
2023/05/06 21:31:35;;;;;;;2.33;0.90;;;;;;;19.32;57.26;100136.75;10099055;29;20121;-75
2023/05/06 21:36:37;;;;;;;2.08;0.93;;;;;;;19.29;57.62;100137.13;10098477;29;20158;-74
2023/05/06 21:41:39;;;;;;;2.05;1.10;;;;;;;19.23;58.35;100140.53;10104108;29;20259;-73
2023/05/06 21:46:41;;;;;;;3.63;0.88;;;;;;;19.15;58.27;100135.22;10114026;29;20484;-75
2023/05/06 21:51:42;;;;;;;1.85;1.15;;;;;;;19.14;58.88;100142.50;10143951;29;20045;-76
2023/05/06 21:56:43;;;;;;;2.10;1.27;;;;;;;18.99;58.98;100137.06;10118497;29;20321;-75
2023/05/06 22:01:45;;;;;;;2.40;0.68;;;;;;;18.98;59.08;100129.97;10108914;29;20060;-76
2023/05/06 22:06:46;;;;;;;1.60;0.82;;;;;;;18.93;59.12;100127.00;10105361;29;20450;-77
2023/05/06 22:11:48;;;;;;;1.90;0.98;;;;;;;18.82;59.88;100133.59;10100958;29;20705;-76
2023/05/06 22:16:51;;;;;;;1.48;1.13;;;;;;;18.81;59.87;100128.38;10098835;29;20056;-77
2023/05/06 22:21:53;;;;;;;2.50;1.17;;;;;;;18.85;59.88;100121.63;10098796;29;20067;-73
2023/05/06 22:26:54;;;;;;;2.75;1.02;;;;;;;18.79;59.46;100109.69;10094921;29;21001;-77
2023/05/06 22:31:55;;;;;;;0.90;0.63;;;;;;;18.70;60.49;100098.13;10103810;29;20070;-75
2023/05/06 22:36:57;;;;;;;2.33;1.15;;;;;;;18.73;60.13;100108.59;10101278;29;20059;-75
2023/05/06 22:42:01;;;;;;;1.35;1.10;;;;;;;18.64;60.22;100098.84;10099730;29;20051;-76
2023/05/06 22:47:02;;;;;;;2.42;0.88;;;;;;;18.62;60.49;100102.78;10098702;29;20071;-78
2023/05/06 22:52:04;;;;;;;2.85;1.20;;;;;;;18.64;61.01;100098.03;10101158;29;20160;-78
2023/05/06 22:57:05;;;;;;;3.08;2.00;;;;;;;18.61;61.01;100112.69;10089608;29;20048;-76
2023/05/06 23:02:07;;;;;;;1.92;1.52;;;;;;;18.48;60.86;100107.06;10107433;29;20059;-78
2023/05/06 23:07:08;;;;;;;2.83;1.75;;;;;;;18.37;62.48;100111.84;10112654;29;20056;-76